createdAt,value
2019-05-16T00:01:39.597Z,49.19
2019-05-16T00:04:09.515Z,49.19
2019-05-16T00:06:39.471Z,49.18
2019-05-16T00:09:09.376Z,48.98
2019-05-16T00:11:39.396Z,49.10
2019-05-16T00:14:09.784Z,49.07
2019-05-16T00:16:39.633Z,49.32
2019-05-16T00:19:09.608Z,49.13
2019-05-16T00:21:40.085Z,49.18
2019-05-16T00:24:10.310Z,49.27
2019-05-16T00:26:40.480Z,49.47
2019-05-16T00:29:10.332Z,49.32
2019-05-16T00:31:40.217Z,49.51
2019-05-16T00:34:10.436Z,49.67
2019-05-16T00:36:40.631Z,49.62
2019-05-16T00:39:10.576Z,49.58
2019-05-16T00:41:40.451Z,49.67
2019-05-16T00:44:10.373Z,49.61
2019-05-16T00:46:40.810Z,49.72
2019-05-16T00:49:10.704Z,49.76
2019-05-16T00:51:40.682Z,49.67
2019-05-16T00:54:10.558Z,49.73
2019-05-16T00:56:41.178Z,49.46
2019-05-16T00:59:11.391Z,49.40
2019-05-16T01:01:41.758Z,49.21
2019-05-16T01:04:11.634Z,49.17
2019-05-16T01:06:41.618Z,48.97
2019-05-16T01:09:11.847Z,49.04
2019-05-16T01:11:41.711Z,49.12
2019-05-16T01:14:11.567Z,49.21
2019-05-16T01:16:42.032Z,49.04
2019-05-16T01:19:12.121Z,49.23
2019-05-16T01:21:42.012Z,48.99
2019-05-16T01:24:11.880Z,48.99
2019-05-16T01:26:42.088Z,49.00
2019-05-16T01:29:12.084Z,48.67
2019-05-16T01:31:42.226Z,48.62
2019-05-16T01:34:12.133Z,48.93
2019-05-16T01:36:42.526Z,48.94
2019-05-16T01:39:12.678Z,48.83
2019-05-16T01:41:42.543Z,48.75
2019-05-16T01:44:12.435Z,48.90
2019-05-16T01:46:42.353Z,48.71
2019-05-16T01:49:12.233Z,48.84
2019-05-16T01:51:42.382Z,48.58
2019-05-16T01:54:12.257Z,48.63
2019-05-16T01:56:42.128Z,48.91
2019-05-16T01:59:12.469Z,49.06
2019-05-16T02:01:42.452Z,49.04
2019-05-16T02:04:12.475Z,48.97
2019-05-16T02:06:51.783Z,49.07
2019-05-16T02:09:14.171Z,49.29
2019-05-16T02:11:44.357Z,49.19
2019-05-16T02:14:15.013Z,49.24
2019-05-16T02:16:44.924Z,48.93
2019-05-16T02:19:14.824Z,49.30
2019-05-16T02:21:44.696Z,49.12
2019-05-16T02:24:14.551Z,49.32
2019-05-16T02:26:44.394Z,49.82
2019-05-16T02:29:14.364Z,49.86
2019-05-16T02:31:44.288Z,50.10
2019-05-16T02:34:14.191Z,50.56
2019-05-16T02:36:44.081Z,51.06
2019-05-16T02:39:13.955Z,52.00
2019-05-16T02:41:46.185Z,53.46
2019-05-16T02:44:15.606Z,53.40
2019-05-16T02:46:45.845Z,53.70
2019-05-16T02:49:15.669Z,54.21
2019-05-16T02:51:46.595Z,54.36
2019-05-16T02:54:16.451Z,54.11
2019-05-16T02:56:46.614Z,54.56
2019-05-16T02:59:16.502Z,53.98
2019-05-16T03:01:51.955Z,54.28
2019-05-16T03:04:21.289Z,54.27
2019-05-16T03:06:52.488Z,54.11
2019-05-16T03:09:23.086Z,53.95
2019-05-16T03:11:53.175Z,54.28
2019-05-16T03:14:24.414Z,54.71
2019-05-16T03:17:00.868Z,55.50
2019-05-16T03:19:31.364Z,56.72
2019-05-16T03:22:02.869Z,58.70
2019-05-16T03:24:33.558Z,59.17
2019-05-16T03:27:03.786Z,58.58
2019-05-16T03:29:33.813Z,60.25
2019-05-16T03:32:03.980Z,60.26
2019-05-16T03:34:35.025Z,60.25
2019-05-16T03:37:05.374Z,60.97
2019-05-16T03:39:35.777Z,61.06
2019-05-16T03:42:05.688Z,61.18
2019-05-16T03:44:35.611Z,61.29
2019-05-16T03:47:05.462Z,62.90
2019-05-16T03:49:35.338Z,62.77
2019-05-16T03:52:05.652Z,63.37
2019-05-16T03:54:35.578Z,64.16
2019-05-16T03:57:05.788Z,64.50
2019-05-16T03:59:35.679Z,65.67
2019-05-16T04:02:06.312Z,66.48
2019-05-16T04:04:37.450Z,67.13
2019-05-16T04:07:10.795Z,67.60
2019-05-16T04:09:41.142Z,68.43
2019-05-16T04:12:11.671Z,69.11
2019-05-16T04:14:41.685Z,69.17
2019-05-16T04:17:11.864Z,70.48
2019-05-16T04:19:42.076Z,70.61
2019-05-16T04:22:16.699Z,71.14
2019-05-16T04:24:46.538Z,72.10
2019-05-16T04:27:16.745Z,72.89
2019-05-16T04:29:46.615Z,73.08
2019-05-16T04:32:16.446Z,74.78
2019-05-16T04:34:46.668Z,75.92
2019-05-16T04:37:16.511Z,75.99
2019-05-16T04:39:46.405Z,76.97
2019-05-16T04:42:16.248Z,76.59
2019-05-16T04:44:46.111Z,76.74
2019-05-16T04:47:15.985Z,77.43
2019-05-16T04:49:46.286Z,77.76
2019-05-16T04:52:16.116Z,79.29
2019-05-16T04:54:46.270Z,79.00
2019-05-16T04:57:16.122Z,79.56
2019-05-16T04:59:45.999Z,80.74
2019-05-16T05:02:15.832Z,80.98
2019-05-16T05:04:46.030Z,80.75
2019-05-16T05:07:15.932Z,81.53
2019-05-16T05:09:46.093Z,81.86
2019-05-16T05:12:15.928Z,82.57
2019-05-16T05:14:46.120Z,83.51
2019-05-16T05:17:16.047Z,84.25
2019-05-16T05:19:45.952Z,84.84
2019-05-16T05:22:15.883Z,85.32
2019-05-16T05:24:45.788Z,85.29
2019-05-16T05:27:15.741Z,85.54
2019-05-16T05:29:45.617Z,86.48
2019-05-16T05:32:15.798Z,86.72
2019-05-16T05:34:45.966Z,87.19
2019-05-16T05:37:16.069Z,87.47
2019-05-16T05:39:45.986Z,87.63
2019-05-16T05:42:15.806Z,87.60
2019-05-16T05:44:45.989Z,87.40
2019-05-16T05:47:16.106Z,87.24
2019-05-16T05:49:45.991Z,87.53
2019-05-16T05:52:15.793Z,87.84
2019-05-16T05:54:45.671Z,88.60
2019-05-16T05:57:15.827Z,88.63
2019-05-16T05:59:46.366Z,89.07
2019-05-16T06:02:16.206Z,89.31
2019-05-16T06:04:46.388Z,89.49
2019-05-16T06:07:16.370Z,89.35
2019-05-16T06:09:53.626Z,89.09
2019-05-16T06:12:37.458Z,89.38
2019-05-16T06:15:11.831Z,88.79
2019-05-16T06:17:40.148Z,88.03
2019-05-16T06:20:14.552Z,88.35
2019-05-16T06:22:42.611Z,89.02
2019-05-16T06:25:14.000Z,88.92
2019-05-16T06:27:45.308Z,89.17
2019-05-16T06:30:15.515Z,89.43
2019-05-16T06:32:46.372Z,89.80
2019-05-16T06:35:16.692Z,90.03
2019-05-16T06:37:49.772Z,89.72
2019-05-16T06:40:20.348Z,90.26
2019-05-16T06:42:51.147Z,90.49
2019-05-16T06:45:21.113Z,90.37
2019-05-16T06:47:50.947Z,90.44
2019-05-16T06:50:21.275Z,91.06
2019-05-16T06:52:51.363Z,91.10
2019-05-16T06:55:21.214Z,91.15
2019-05-16T06:57:51.424Z,91.00
2019-05-16T07:00:23.744Z,91.13
2019-05-16T07:02:53.665Z,91.09
2019-05-16T07:05:23.812Z,91.00
2019-05-16T07:07:53.969Z,91.34
2019-05-16T07:10:23.960Z,91.16
2019-05-16T07:12:54.373Z,90.47
2019-05-16T07:15:24.262Z,90.27
2019-05-16T07:17:54.147Z,90.68
2019-05-16T07:20:24.123Z,90.27
2019-05-16T07:22:53.975Z,90.07
2019-05-16T07:25:23.935Z,89.68
2019-05-16T07:27:53.804Z,90.03
2019-05-16T07:30:24.399Z,89.86
2019-05-16T07:32:54.602Z,89.44
2019-05-16T07:35:24.569Z,89.59
2019-05-16T07:37:54.450Z,89.97
2019-05-16T07:40:27.039Z,90.47
2019-05-16T07:42:56.064Z,90.15
2019-05-16T07:45:25.933Z,90.32
2019-05-16T07:47:55.856Z,90.38
2019-05-16T07:50:26.413Z,90.20
2019-05-16T07:52:56.325Z,90.16
2019-05-16T07:55:26.199Z,89.82
2019-05-16T07:57:56.034Z,89.64
2019-05-16T08:00:43.393Z,89.87
2019-05-16T08:03:00.027Z,89.61
2019-05-16T08:05:33.381Z,89.94
2019-05-16T08:08:02.125Z,90.07
2019-05-16T08:10:40.588Z,90.00
2019-05-16T08:13:03.716Z,90.19
2019-05-16T08:15:33.553Z,90.33
2019-05-16T08:18:03.497Z,89.90
2019-05-16T08:20:33.446Z,89.76
2019-05-16T08:23:03.388Z,89.40
2019-05-16T08:25:33.503Z,89.10
2019-05-16T08:28:04.042Z,88.47
2019-05-16T08:30:34.021Z,87.64
2019-05-16T08:33:03.972Z,87.26
2019-05-16T08:35:33.821Z,86.94
2019-05-16T08:38:03.680Z,86.30
2019-05-16T08:40:59.719Z,87.06
2019-05-16T08:43:05.577Z,87.12
2019-05-16T08:45:36.432Z,86.97
2019-05-16T08:48:07.470Z,87.59
2019-05-16T08:50:41.133Z,87.41
2019-05-16T08:53:12.913Z,87.85
2019-05-16T08:55:43.350Z,87.04
2019-05-16T08:58:13.547Z,86.79
2019-05-16T09:00:43.735Z,86.71
2019-05-16T09:03:13.637Z,86.83
2019-05-16T09:05:43.902Z,86.34
2019-05-16T09:08:13.878Z,86.69
2019-05-16T09:10:55.618Z,86.73
2019-05-16T09:13:17.564Z,86.08
2019-05-16T09:15:48.128Z,86.07
2019-05-16T09:18:18.552Z,86.11
2019-05-16T09:20:50.358Z,85.87
2019-05-16T09:23:20.110Z,86.46
2019-05-16T09:25:49.993Z,85.49
2019-05-16T09:28:19.952Z,85.89
2019-05-16T09:30:49.942Z,85.74
2019-05-16T09:33:20.133Z,85.71
2019-05-16T09:35:50.097Z,85.39
2019-05-16T09:38:25.157Z,85.00
2019-05-16T09:40:51.931Z,84.54
2019-05-16T09:43:21.870Z,85.32
2019-05-16T09:45:57.336Z,85.17
2019-05-16T09:48:23.747Z,84.88
2019-05-16T09:50:54.217Z,84.48
2019-05-16T09:53:24.395Z,84.96
2019-05-16T09:55:54.745Z,85.86
2019-05-16T09:58:24.686Z,86.02
2019-05-16T10:00:57.540Z,86.36
2019-05-16T10:03:27.202Z,86.36
2019-05-16T10:05:57.564Z,86.54
2019-05-16T10:08:27.425Z,86.73
2019-05-16T10:10:57.918Z,87.32
2019-05-16T10:13:28.147Z,87.19
2019-05-16T10:15:58.283Z,87.57
2019-05-16T10:18:28.503Z,87.80
2019-05-16T10:20:59.306Z,87.73
2019-05-16T10:23:29.618Z,87.94
2019-05-16T10:25:59.800Z,88.36
2019-05-16T10:28:30.265Z,88.84
2019-05-16T10:31:00.613Z,89.46
2019-05-16T10:33:30.501Z,89.78
2019-05-16T10:36:00.668Z,89.82
2019-05-16T10:38:30.708Z,89.99
2019-05-16T10:41:00.711Z,90.48
2019-05-16T10:43:30.640Z,90.15
2019-05-16T10:46:01.095Z,90.24
2019-05-16T10:48:31.016Z,90.40
2019-05-16T10:51:00.875Z,90.34
2019-05-16T10:53:58.162Z,90.05
2019-05-16T10:56:03.025Z,89.69
2019-05-16T10:58:37.243Z,89.43
2019-05-16T11:01:19.527Z,89.21
2019-05-16T11:03:36.216Z,89.13
2019-05-16T11:06:13.193Z,89.03
2019-05-16T11:08:39.643Z,89.32
2019-05-16T11:11:09.672Z,88.94
2019-05-16T11:13:39.605Z,88.84
2019-05-16T11:16:09.694Z,89.15
2019-05-16T11:18:39.669Z,89.59
2019-05-16T11:21:09.840Z,90.06
2019-05-16T11:23:40.067Z,90.67
2019-05-16T11:26:09.931Z,90.95
2019-05-16T11:28:39.818Z,91.03
2019-05-16T11:31:09.693Z,91.36
2019-05-16T11:33:39.565Z,90.88
2019-05-16T11:36:12.687Z,90.65
2019-05-16T11:38:41.051Z,91.03
2019-05-16T11:41:10.941Z,91.23
2019-05-16T11:43:40.782Z,91.32
2019-05-16T11:46:11.059Z,91.60
2019-05-16T11:48:40.971Z,92.72
2019-05-16T11:51:10.801Z,92.88
2019-05-16T11:53:41.000Z,92.67
2019-05-16T11:56:10.958Z,92.48
2019-05-16T11:58:40.931Z,92.36
2019-05-16T12:01:10.871Z,91.86
2019-05-16T12:03:41.363Z,91.82
2019-05-16T12:06:11.503Z,91.77
2019-05-16T12:08:41.331Z,91.49
2019-05-16T12:11:11.479Z,90.92
2019-05-16T12:13:41.615Z,91.06
2019-05-16T12:16:14.805Z,91.09
2019-05-16T12:18:43.552Z,90.84
2019-05-16T12:21:13.864Z,91.50
2019-05-16T12:23:43.730Z,91.80
2019-05-16T12:26:13.604Z,91.92
2019-05-16T12:28:43.500Z,91.40
2019-05-16T12:31:13.372Z,91.99
2019-05-16T12:33:43.357Z,92.09
2019-05-16T12:36:13.360Z,92.21
2019-05-16T12:38:43.209Z,91.82
2019-05-16T12:41:13.184Z,92.05
2019-05-16T12:43:50.530Z,92.44
2019-05-16T12:46:15.246Z,92.05
2019-05-16T12:48:47.244Z,91.84
2019-05-16T12:51:17.399Z,91.94
2019-05-16T12:53:47.902Z,91.95
2019-05-16T12:56:18.282Z,91.44
2019-05-16T12:58:50.741Z,90.61
2019-05-16T13:01:20.756Z,90.08
2019-05-16T13:03:51.255Z,90.13
2019-05-16T13:06:21.127Z,90.58
2019-05-16T13:08:53.583Z,89.94
2019-05-16T13:11:23.295Z,89.68
2019-05-16T13:14:05.527Z,89.52
2019-05-16T13:16:25.245Z,89.63
2019-05-16T13:18:56.680Z,89.30
2019-05-16T13:21:27.601Z,88.27
2019-05-16T13:23:57.725Z,87.74
2019-05-16T13:26:27.541Z,86.42
2019-05-16T13:28:57.956Z,86.01
2019-05-16T13:31:28.620Z,85.56
2019-05-16T13:33:59.165Z,85.75
2019-05-16T13:36:29.440Z,85.89
2019-05-16T13:38:59.554Z,86.00
2019-05-16T13:41:29.427Z,85.37
2019-05-16T13:44:12.924Z,84.26
2019-05-16T13:46:31.200Z,85.73
2019-05-16T13:49:01.068Z,86.04
2019-05-16T13:51:30.977Z,86.38
2019-05-16T13:54:00.855Z,85.96
2019-05-16T13:56:30.983Z,86.34
2019-05-16T13:59:00.942Z,87.05
2019-05-16T14:01:30.821Z,86.63
2019-05-16T14:04:00.943Z,86.06
2019-05-16T14:06:31.014Z,86.29
2019-05-16T14:09:00.910Z,86.22
2019-05-16T14:11:31.391Z,86.23
2019-05-16T14:14:04.578Z,85.96
2019-05-16T14:16:33.133Z,86.12
2019-05-16T14:19:03.139Z,87.01
2019-05-16T14:21:34.017Z,86.80
2019-05-16T14:24:04.171Z,87.05
2019-05-16T14:26:34.033Z,86.78
2019-05-16T14:29:04.006Z,86.98
2019-05-16T14:31:34.023Z,87.09
2019-05-16T14:34:06.170Z,87.24
2019-05-16T14:36:37.691Z,87.21
2019-05-16T14:39:08.237Z,85.60
2019-05-16T14:41:38.151Z,86.56
2019-05-16T14:44:08.177Z,85.67
2019-05-16T14:46:38.560Z,85.65
2019-05-16T14:49:08.516Z,87.05
2019-05-16T14:51:38.877Z,87.14
2019-05-16T14:54:09.037Z,87.08
2019-05-16T14:56:39.281Z,87.16
2019-05-16T14:59:09.502Z,87.21
2019-05-16T15:01:39.375Z,86.35
2019-05-16T15:04:09.649Z,86.33
2019-05-16T15:06:39.570Z,86.25
2019-05-16T15:09:09.697Z,86.52
2019-05-16T15:11:39.968Z,86.44
2019-05-16T15:14:09.848Z,86.36
2019-05-16T15:16:40.070Z,86.20
2019-05-16T15:19:10.535Z,87.41
2019-05-16T15:21:41.074Z,87.63
2019-05-16T15:24:11.020Z,88.27
2019-05-16T15:26:41.262Z,87.84
2019-05-16T15:29:11.213Z,88.16
2019-05-16T15:31:42.786Z,87.70
2019-05-16T15:34:13.036Z,87.69
2019-05-16T15:36:42.901Z,87.61
2019-05-16T15:39:13.134Z,87.73
2019-05-16T15:41:43.065Z,88.40
2019-05-16T15:44:13.298Z,88.53
2019-05-16T15:46:43.296Z,88.21
2019-05-16T15:49:13.207Z,87.65
2019-05-16T15:51:44.246Z,87.07
2019-05-16T15:54:21.310Z,87.48
2019-05-16T15:56:52.284Z,87.00
2019-05-16T15:59:22.186Z,86.60
2019-05-16T16:01:53.874Z,86.73
2019-05-16T16:04:24.052Z,86.63
2019-05-16T16:06:54.006Z,86.92
2019-05-16T16:09:26.840Z,86.72
2019-05-16T16:11:56.609Z,87.02
2019-05-16T16:14:27.456Z,86.78
2019-05-16T16:16:57.570Z,86.82
2019-05-16T16:19:27.458Z,87.25
2019-05-16T16:21:57.973Z,87.75
2019-05-16T16:24:28.323Z,87.64
2019-05-16T16:26:58.435Z,87.08
2019-05-16T16:29:28.691Z,87.28
2019-05-16T16:31:58.522Z,87.10
2019-05-16T16:34:28.474Z,88.07
2019-05-16T16:36:58.389Z,88.15
2019-05-16T16:39:28.334Z,88.65
2019-05-16T16:41:58.252Z,89.13
2019-05-16T16:44:28.298Z,89.22
2019-05-16T16:46:58.469Z,89.57
2019-05-16T16:49:29.030Z,89.53
2019-05-16T16:51:59.531Z,89.76
2019-05-16T16:54:29.445Z,89.92
2019-05-16T16:56:59.695Z,89.90
2019-05-16T16:59:29.599Z,89.71
2019-05-16T17:01:59.832Z,89.77
2019-05-16T17:04:30.098Z,89.71
2019-05-16T17:07:00.367Z,89.58
2019-05-16T17:09:30.860Z,89.93
2019-05-16T17:12:01.207Z,90.43
2019-05-16T17:14:31.436Z,90.46
2019-05-16T17:17:01.677Z,90.34
2019-05-16T17:19:31.670Z,90.52
2019-05-16T17:22:13.638Z,90.50
2019-05-16T17:24:33.721Z,90.34
2019-05-16T17:27:03.642Z,90.34
2019-05-16T17:29:33.577Z,90.59
2019-05-16T17:32:06.620Z,90.78
2019-05-16T17:34:37.292Z,90.74
2019-05-16T17:37:09.483Z,90.65
2019-05-16T17:39:38.815Z,90.80
2019-05-16T17:42:08.729Z,90.95
2019-05-16T17:44:38.884Z,91.42
2019-05-16T17:47:08.822Z,91.64
2019-05-16T17:49:39.010Z,91.34
2019-05-16T17:52:08.937Z,91.37
2019-05-16T17:54:38.831Z,91.65
2019-05-16T17:57:08.754Z,91.99
2019-05-16T17:59:38.634Z,91.66
2019-05-16T18:02:08.516Z,91.93
2019-05-16T18:04:41.107Z,92.54
2019-05-16T18:07:10.051Z,92.62
2019-05-16T18:09:42.901Z,93.06
2019-05-16T18:12:11.840Z,93.29
2019-05-16T18:14:42.176Z,93.70
2019-05-16T18:17:12.418Z,94.17
2019-05-16T18:19:42.374Z,94.41
2019-05-16T18:22:12.695Z,94.56
2019-05-16T18:24:42.650Z,94.70
2019-05-16T18:27:12.573Z,94.68
2019-05-16T18:29:43.207Z,94.78
2019-05-16T18:32:13.107Z,94.89
2019-05-16T18:34:42.982Z,95.04
2019-05-16T18:37:12.842Z,95.09
2019-05-16T18:39:43.049Z,95.29
2019-05-16T18:42:13.177Z,95.48
2019-05-16T18:44:43.058Z,95.34
2019-05-16T18:47:12.987Z,95.03
2019-05-16T18:49:43.570Z,95.04
2019-05-16T18:52:14.021Z,95.16
2019-05-16T18:54:46.515Z,95.42
2019-05-16T18:57:17.565Z,95.56
2019-05-16T18:59:47.084Z,95.60
2019-05-16T19:02:17.962Z,95.61
2019-05-16T19:04:50.074Z,95.77
2019-05-16T19:07:19.791Z,95.88
2019-05-16T19:09:49.732Z,95.77
2019-05-16T19:12:19.648Z,95.93
2019-05-16T19:14:49.524Z,96.05
2019-05-16T19:17:24.135Z,96.17
2019-05-16T19:19:51.035Z,96.11
2019-05-16T19:22:20.924Z,96.29
2019-05-16T19:24:50.878Z,96.52
2019-05-16T19:27:20.797Z,96.56
2019-05-16T19:29:51.787Z,96.81
2019-05-16T19:32:22.227Z,96.95
2019-05-16T19:34:52.443Z,97.00
2019-05-16T19:37:22.895Z,97.22
2019-05-16T19:39:52.757Z,97.43
2019-05-16T19:42:22.926Z,97.39
2019-05-16T19:44:52.855Z,97.47
2019-05-16T19:47:34.153Z,97.61
2019-05-16T19:49:56.882Z,97.81
2019-05-16T19:52:26.945Z,97.80
2019-05-16T19:54:56.981Z,97.76
2019-05-16T19:57:27.228Z,97.76
2019-05-16T19:59:57.224Z,97.71
2019-05-16T20:02:27.412Z,97.64
2019-05-16T20:04:57.505Z,97.56
2019-05-16T20:07:27.730Z,97.32
2019-05-16T20:09:57.657Z,97.32
2019-05-16T20:12:27.769Z,97.56
2019-05-16T20:15:07.580Z,97.75
2019-05-16T20:17:29.608Z,97.68
2019-05-16T20:20:00.150Z,97.58
2019-05-16T20:22:30.003Z,97.60
2019-05-16T20:24:59.965Z,97.45
2019-05-16T20:27:30.189Z,97.06
2019-05-16T20:30:00.166Z,96.87
2019-05-16T20:32:30.604Z,96.73
2019-05-16T20:35:01.268Z,96.81
2019-05-16T20:37:31.492Z,96.75
2019-05-16T20:40:02.030Z,96.61
2019-05-16T20:42:32.237Z,96.41
2019-05-16T20:45:02.179Z,96.19
2019-05-16T20:47:32.065Z,96.34
2019-05-16T20:50:01.977Z,96.63
2019-05-16T20:52:31.871Z,96.93
2019-05-16T20:55:02.396Z,97.18
2019-05-16T20:57:32.543Z,97.26
2019-05-16T21:00:02.411Z,97.25
2019-05-16T21:02:32.299Z,97.28
2019-05-16T21:05:02.534Z,97.27
2019-05-16T21:07:32.695Z,97.38
2019-05-16T21:10:02.578Z,97.33
2019-05-16T21:12:33.041Z,97.30
2019-05-16T21:15:02.939Z,97.26
2019-05-16T21:17:33.126Z,97.55
2019-05-16T21:20:03.177Z,97.60
2019-05-16T21:22:33.323Z,97.55
2019-05-16T21:25:03.272Z,97.61
2019-05-16T21:27:33.159Z,97.80
2019-05-16T21:30:03.329Z,97.57
2019-05-16T21:32:33.522Z,97.37
2019-05-16T21:35:03.691Z,97.35
2019-05-16T21:37:33.865Z,97.19
2019-05-16T21:40:04.513Z,97.17
2019-05-16T21:42:36.422Z,97.12
2019-05-16T21:45:07.646Z,97.10
2019-05-16T21:47:37.589Z,97.06
2019-05-16T21:50:08.267Z,96.98
2019-05-16T21:52:38.357Z,97.12
2019-05-16T21:55:09.198Z,97.13
2019-05-16T21:57:39.147Z,96.99
2019-05-16T22:00:17.440Z,97.16
2019-05-16T22:02:47.980Z,97.19
2019-05-16T22:05:18.103Z,96.92
2019-05-16T22:07:48.515Z,96.79
2019-05-16T22:10:18.543Z,96.79
2019-05-16T22:12:49.067Z,96.89
2019-05-16T22:15:18.940Z,96.97
2019-05-16T22:17:48.875Z,97.26
2019-05-16T22:20:19.053Z,97.25
2019-05-16T22:22:48.933Z,97.31
2019-05-16T22:25:18.918Z,97.28
2019-05-16T22:27:49.026Z,97.17
2019-05-16T22:30:21.290Z,97.17
2019-05-16T22:32:51.646Z,97.17
2019-05-16T22:35:21.676Z,97.11
2019-05-16T22:37:55.544Z,96.98
2019-05-16T22:40:23.249Z,97.01
2019-05-16T22:42:53.443Z,96.63
2019-05-16T22:45:23.464Z,96.85
2019-05-16T22:47:53.681Z,97.21
2019-05-16T22:50:24.129Z,97.35
2019-05-16T22:52:56.820Z,97.33
2019-05-16T22:55:26.565Z,97.48
2019-05-16T22:57:56.630Z,97.87
2019-05-16T23:00:29.814Z,98.20
2019-05-16T23:03:00.254Z,98.38
2019-05-16T23:05:30.329Z,98.60
2019-05-16T23:08:05.715Z,98.49
2019-05-16T23:10:32.135Z,98.51
2019-05-16T23:13:02.688Z,98.37
2019-05-16T23:15:32.686Z,98.16
2019-05-16T23:18:02.594Z,98.29
2019-05-16T23:20:32.491Z,98.22
2019-05-16T23:23:02.389Z,98.24
2019-05-16T23:25:32.277Z,98.16
2019-05-16T23:28:02.150Z,98.14
2019-05-16T23:30:32.054Z,98.10
2019-05-16T23:33:02.226Z,98.01
2019-05-16T23:35:32.093Z,97.92
2019-05-16T23:38:02.008Z,98.08
2019-05-16T23:40:32.355Z,98.30
2019-05-16T23:43:02.216Z,98.55
2019-05-16T23:45:32.108Z,98.38
2019-05-16T23:48:02.457Z,98.33
2019-05-16T23:50:32.413Z,98.19
2019-05-16T23:53:02.312Z,98.00
2019-05-16T23:55:32.177Z,97.99
2019-05-16T23:58:02.065Z,98.02
